sensor_id;sensor_type;location;lat;lon;timestamp;temperature;humidity
25568;DHT22;13455;51.480;7.594;2023-07-31T00:00:55;16.50;99.90
25568;DHT22;13455;51.480;7.594;2023-07-31T00:03:20;16.50;99.90
25568;DHT22;13455;51.480;7.594;2023-07-31T00:05:46;16.40;99.90
25568;DHT22;13455;51.480;7.594;2023-07-31T00:08:12;16.70;99.90
25568;DHT22;13455;51.480;7.594;2023-07-31T00:10:37;16.70;99.90
25568;DHT22;13455;51.480;7.594;2023-07-31T00:13:03;16.80;99.90
25568;DHT22;13455;51.480;7.594;2023-07-31T00:15:29;16.40;99.90
25568;DHT22;13455;51.480;7.594;2023-07-31T00:17:54;16.50;99.90
25568;DHT22;13455;51.480;7.594;2023-07-31T00:20:20;16.60;99.90
25568;DHT22;13455;51.480;7.594;2023-07-31T00:22:46;16.40;99.90
25568;DHT22;13455;51.480;7.594;2023-07-31T00:25:11;16.50;99.90
25568;DHT22;13455;51.480;7.594;2023-07-31T00:27:37;16.70;99.90
25568;DHT22;13455;51.480;7.594;2023-07-31T00:30:03;16.80;99.90
25568;DHT22;13455;51.480;7.594;2023-07-31T00:34:54;16.30;99.90
25568;DHT22;13455;51.480;7.594;2023-07-31T00:37:20;16.70;99.90
25568;DHT22;13455;51.480;7.594;2023-07-31T00:39:46;16.70;99.90
25568;DHT22;13455;51.480;7.594;2023-07-31T01:09:20;16.30;99.90
25568;DHT22;13455;51.480;7.594;2023-07-31T01:11:53;16.60;99.90
25568;DHT22;13455;51.480;7.594;2023-07-31T01:14:19;16.60;99.90
25568;DHT22;13455;51.480;7.594;2023-07-31T01:16:44;16.30;99.90
25568;DHT22;13455;51.480;7.594;2023-07-31T01:19:11;16.60;99.90
25568;DHT22;13455;51.480;7.594;2023-07-31T01:26:39;16.30;99.90
25568;DHT22;13455;51.480;7.594;2023-07-31T01:32:07;16.40;99.90
25568;DHT22;13455;51.480;7.594;2023-07-31T01:34:35;16.40;99.90
25568;DHT22;13455;51.480;7.594;2023-07-31T01:37:02;16.60;99.90
25568;DHT22;13455;51.480;7.594;2023-07-31T01:39:28;16.50;99.90
25568;DHT22;13455;51.480;7.594;2023-07-31T01:41:54;16.50;99.90
25568;DHT22;13455;51.480;7.594;2023-07-31T01:44:19;16.50;99.90
25568;DHT22;13455;51.480;7.594;2023-07-31T01:46:45;16.70;99.90
25568;DHT22;13455;51.480;7.594;2023-07-31T01:49:11;16.40;99.90
25568;DHT22;13455;51.480;7.594;2023-07-31T01:51:36;16.80;99.90
25568;DHT22;13455;51.480;7.594;2023-07-31T01:54:02;16.70;99.90
25568;DHT22;13455;51.480;7.594;2023-07-31T01:56:28;16.40;99.90
25568;DHT22;13455;51.480;7.594;2023-07-31T01:58:54;16.60;99.90
25568;DHT22;13455;51.480;7.594;2023-07-31T02:01:19;17.40;99.90
25568;DHT22;13455;51.480;7.594;2023-07-31T02:03:45;16.40;99.90
25568;DHT22;13455;51.480;7.594;2023-07-31T02:06:11;16.60;99.90
25568;DHT22;13455;51.480;7.594;2023-07-31T02:08:36;16.60;99.90
25568;DHT22;13455;51.480;7.594;2023-07-31T02:11:02;16.30;99.90
25568;DHT22;13455;51.480;7.594;2023-07-31T02:13:28;16.50;99.90
25568;DHT22;13455;51.480;7.594;2023-07-31T02:15:54;16.60;99.90
25568;DHT22;13455;51.480;7.594;2023-07-31T02:18:19;16.40;99.90
25568;DHT22;13455;51.480;7.594;2023-07-31T02:20:52;16.70;99.90
25568;DHT22;13455;51.480;7.594;2023-07-31T02:23:18;16.40;99.90
25568;DHT22;13455;51.480;7.594;2023-07-31T02:25:44;16.60;99.90
25568;DHT22;13455;51.480;7.594;2023-07-31T02:28:10;16.50;99.90
25568;DHT22;13455;51.480;7.594;2023-07-31T02:30:36;16.60;99.90
25568;DHT22;13455;51.480;7.594;2023-07-31T02:33:02;16.10;99.90
25568;DHT22;13455;51.480;7.594;2023-07-31T02:35:28;16.40;99.90
25568;DHT22;13455;51.480;7.594;2023-07-31T02:37:53;16.40;99.90
25568;DHT22;13455;51.480;7.594;2023-07-31T02:40:19;16.30;99.90
25568;DHT22;13455;51.480;7.594;2023-07-31T02:42:44;16.60;99.90
25568;DHT22;13455;51.480;7.594;2023-07-31T02:45:10;16.50;99.90
25568;DHT22;13455;51.480;7.594;2023-07-31T02:47:36;16.40;99.90
25568;DHT22;13455;51.480;7.594;2023-07-31T02:50:02;16.60;99.90
25568;DHT22;13455;51.480;7.594;2023-07-31T02:52:28;16.20;99.90
25568;DHT22;13455;51.480;7.594;2023-07-31T02:54:54;16.20;99.90
25568;DHT22;13455;51.480;7.594;2023-07-31T02:57:20;16.30;99.90
25568;DHT22;13455;51.480;7.594;2023-07-31T02:59:45;16.50;99.90
25568;DHT22;13455;51.480;7.594;2023-07-31T03:02:11;16.60;99.90
25568;DHT22;13455;51.480;7.594;2023-07-31T03:04:38;16.30;99.90
25568;DHT22;13455;51.480;7.594;2023-07-31T03:07:04;16.30;99.90
25568;DHT22;13455;51.480;7.594;2023-07-31T03:09:29;16.30;99.90
25568;DHT22;13455;51.480;7.594;2023-07-31T03:11:55;16.30;99.90
25568;DHT22;13455;51.480;7.594;2023-07-31T03:14:21;16.20;99.90
25568;DHT22;13455;51.480;7.594;2023-07-31T03:16:48;16.40;99.90
25568;DHT22;13455;51.480;7.594;2023-07-31T03:19:14;16.00;99.90
25568;DHT22;13455;51.480;7.594;2023-07-31T03:21:39;16.40;99.90
25568;DHT22;13455;51.480;7.594;2023-07-31T03:24:05;16.30;99.90
25568;DHT22;13455;51.480;7.594;2023-07-31T03:26:32;16.60;99.90
25568;DHT22;13455;51.480;7.594;2023-07-31T03:28:58;16.50;99.90
25568;DHT22;13455;51.480;7.594;2023-07-31T03:31:23;16.40;99.90
25568;DHT22;13455;51.480;7.594;2023-07-31T03:33:49;16.20;99.90
25568;DHT22;13455;51.480;7.594;2023-07-31T03:36:15;16.40;99.90
25568;DHT22;13455;51.480;7.594;2023-07-31T03:38:41;16.40;99.90
25568;DHT22;13455;51.480;7.594;2023-07-31T03:41:06;16.40;99.90
25568;DHT22;13455;51.480;7.594;2023-07-31T03:43:32;16.60;99.90
25568;DHT22;13455;51.480;7.594;2023-07-31T03:46:00;16.20;99.90
25568;DHT22;13455;51.480;7.594;2023-07-31T03:48:26;16.50;99.90
25568;DHT22;13455;51.480;7.594;2023-07-31T03:50:52;16.40;99.90
25568;DHT22;13455;51.480;7.594;2023-07-31T03:53:17;16.50;99.90
25568;DHT22;13455;51.480;7.594;2023-07-31T03:55:43;16.50;99.90
25568;DHT22;13455;51.480;7.594;2023-07-31T03:58:09;16.40;99.90
25568;DHT22;13455;51.480;7.594;2023-07-31T04:00:35;16.50;99.90
25568;DHT22;13455;51.480;7.594;2023-07-31T04:03:00;16.40;99.90
25568;DHT22;13455;51.480;7.594;2023-07-31T04:05:26;16.50;99.90
25568;DHT22;13455;51.480;7.594;2023-07-31T04:07:52;16.30;99.90
25568;DHT22;13455;51.480;7.594;2023-07-31T04:10:17;16.80;99.90
25568;DHT22;13455;51.480;7.594;2023-07-31T04:12:43;16.60;99.90
25568;DHT22;13455;51.480;7.594;2023-07-31T04:15:09;16.50;99.90
25568;DHT22;13455;51.480;7.594;2023-07-31T04:17:34;16.40;99.90
25568;DHT22;13455;51.480;7.594;2023-07-31T04:20:00;16.70;99.90
25568;DHT22;13455;51.480;7.594;2023-07-31T04:22:27;16.60;99.90
25568;DHT22;13455;51.480;7.594;2023-07-31T04:24:52;16.60;99.90
25568;DHT22;13455;51.480;7.594;2023-07-31T04:27:18;16.80;99.90
25568;DHT22;13455;51.480;7.594;2023-07-31T04:29:44;16.60;99.90
25568;DHT22;13455;51.480;7.594;2023-07-31T04:32:11;16.50;99.90
25568;DHT22;13455;51.480;7.594;2023-07-31T04:34:37;16.80;99.90
25568;DHT22;13455;51.480;7.594;2023-07-31T04:37:03;16.60;99.90
25568;DHT22;13455;51.480;7.594;2023-07-31T04:39:28;16.70;99.90
25568;DHT22;13455;51.480;7.594;2023-07-31T04:41:54;16.80;99.90
25568;DHT22;13455;51.480;7.594;2023-07-31T04:44:20;16.90;99.90
25568;DHT22;13455;51.480;7.594;2023-07-31T04:46:45;17.00;99.90
25568;DHT22;13455;51.480;7.594;2023-07-31T04:49:11;16.90;99.90
25568;DHT22;13455;51.480;7.594;2023-07-31T04:51:37;16.80;99.90
25568;DHT22;13455;51.480;7.594;2023-07-31T04:54:03;17.00;99.90
25568;DHT22;13455;51.480;7.594;2023-07-31T04:56:28;17.10;99.90
25568;DHT22;13455;51.480;7.594;2023-07-31T04:58:54;16.80;99.90
25568;DHT22;13455;51.480;7.594;2023-07-31T05:01:20;16.80;99.90
25568;DHT22;13455;51.480;7.594;2023-07-31T05:03:46;17.00;99.90
25568;DHT22;13455;51.480;7.594;2023-07-31T05:06:11;17.00;99.90
25568;DHT22;13455;51.480;7.594;2023-07-31T05:08:38;16.80;99.90
25568;DHT22;13455;51.480;7.594;2023-07-31T05:11:04;16.80;99.90
25568;DHT22;13455;51.480;7.594;2023-07-31T05:13:30;16.80;99.90
25568;DHT22;13455;51.480;7.594;2023-07-31T05:15:55;16.70;99.90
25568;DHT22;13455;51.480;7.594;2023-07-31T05:18:21;16.90;99.90
25568;DHT22;13455;51.480;7.594;2023-07-31T05:20:46;17.10;99.90
25568;DHT22;13455;51.480;7.594;2023-07-31T05:23:12;17.10;99.90
25568;DHT22;13455;51.480;7.594;2023-07-31T05:25:38;17.30;99.90
25568;DHT22;13455;51.480;7.594;2023-07-31T05:28:03;17.10;99.90
25568;DHT22;13455;51.480;7.594;2023-07-31T05:30:32;16.90;99.90
25568;DHT22;13455;51.480;7.594;2023-07-31T05:32:58;17.00;99.90
25568;DHT22;13455;51.480;7.594;2023-07-31T05:35:23;17.20;99.90
25568;DHT22;13455;51.480;7.594;2023-07-31T05:37:49;17.00;99.90
25568;DHT22;13455;51.480;7.594;2023-07-31T05:40:15;17.20;99.90
25568;DHT22;13455;51.480;7.594;2023-07-31T05:42:40;17.10;99.90
25568;DHT22;13455;51.480;7.594;2023-07-31T05:45:07;16.90;99.90
25568;DHT22;13455;51.480;7.594;2023-07-31T05:47:33;17.10;99.90
25568;DHT22;13455;51.480;7.594;2023-07-31T05:49:59;17.40;99.90
25568;DHT22;13455;51.480;7.594;2023-07-31T05:52:24;17.20;99.90
25568;DHT22;13455;51.480;7.594;2023-07-31T05:54:50;17.20;99.90
25568;DHT22;13455;51.480;7.594;2023-07-31T05:57:16;17.40;99.90
25568;DHT22;13455;51.480;7.594;2023-07-31T05:59:41;17.30;99.90
25568;DHT22;13455;51.480;7.594;2023-07-31T06:02:07;17.30;99.90
25568;DHT22;13455;51.480;7.594;2023-07-31T06:04:33;17.50;99.90
25568;DHT22;13455;51.480;7.594;2023-07-31T06:06:58;17.20;99.90
25568;DHT22;13455;51.480;7.594;2023-07-31T06:09:24;17.30;99.90
25568;DHT22;13455;51.480;7.594;2023-07-31T06:11:51;16.80;99.90
25568;DHT22;13455;51.480;7.594;2023-07-31T06:14:16;17.50;99.90
25568;DHT22;13455;51.480;7.594;2023-07-31T06:16:43;17.60;99.90
25568;DHT22;13455;51.480;7.594;2023-07-31T06:19:09;17.60;99.90
25568;DHT22;13455;51.480;7.594;2023-07-31T06:21:35;17.60;99.90
25568;DHT22;13455;51.480;7.594;2023-07-31T06:24:03;17.70;99.90
25568;DHT22;13455;51.480;7.594;2023-07-31T06:26:29;17.40;99.90
25568;DHT22;13455;51.480;7.594;2023-07-31T06:28:54;17.50;99.90
25568;DHT22;13455;51.480;7.594;2023-07-31T06:31:20;17.50;99.90
25568;DHT22;13455;51.480;7.594;2023-07-31T06:33:52;17.40;99.90
25568;DHT22;13455;51.480;7.594;2023-07-31T06:36:18;17.50;99.90
25568;DHT22;13455;51.480;7.594;2023-07-31T06:38:43;17.60;99.90
25568;DHT22;13455;51.480;7.594;2023-07-31T06:41:09;17.60;99.90
25568;DHT22;13455;51.480;7.594;2023-07-31T06:43:36;17.60;99.90
25568;DHT22;13455;51.480;7.594;2023-07-31T06:46:06;17.40;99.90
25568;DHT22;13455;51.480;7.594;2023-07-31T06:48:35;17.60;99.90
25568;DHT22;13455;51.480;7.594;2023-07-31T06:51:02;17.60;99.90
25568;DHT22;13455;51.480;7.594;2023-07-31T06:53:28;17.70;99.90
25568;DHT22;13455;51.480;7.594;2023-07-31T06:55:54;17.80;99.90
25568;DHT22;13455;51.480;7.594;2023-07-31T06:58:20;17.50;99.90
25568;DHT22;13455;51.480;7.594;2023-07-31T07:00:45;17.50;99.90
25568;DHT22;13455;51.480;7.594;2023-07-31T07:03:11;17.70;99.90
25568;DHT22;13455;51.480;7.594;2023-07-31T07:05:37;17.70;99.90
25568;DHT22;13455;51.480;7.594;2023-07-31T07:08:02;17.80;99.90
25568;DHT22;13455;51.480;7.594;2023-07-31T07:10:28;17.50;99.90
25568;DHT22;13455;51.480;7.594;2023-07-31T07:12:54;18.00;99.90
25568;DHT22;13455;51.480;7.594;2023-07-31T07:15:21;17.60;99.90
25568;DHT22;13455;51.480;7.594;2023-07-31T07:17:46;18.10;99.90
25568;DHT22;13455;51.480;7.594;2023-07-31T07:20:12;17.70;99.90
25568;DHT22;13455;51.480;7.594;2023-07-31T07:22:38;17.80;99.90
25568;DHT22;13455;51.480;7.594;2023-07-31T07:25:04;17.70;99.90
25568;DHT22;13455;51.480;7.594;2023-07-31T07:27:30;17.80;99.90
25568;DHT22;13455;51.480;7.594;2023-07-31T07:29:55;17.60;99.90
25568;DHT22;13455;51.480;7.594;2023-07-31T07:32:21;17.80;99.90
25568;DHT22;13455;51.480;7.594;2023-07-31T07:34:48;17.80;99.90
25568;DHT22;13455;51.480;7.594;2023-07-31T07:37:14;17.80;99.90
25568;DHT22;13455;51.480;7.594;2023-07-31T07:39:40;17.70;99.90
25568;DHT22;13455;51.480;7.594;2023-07-31T07:42:06;17.80;99.90
25568;DHT22;13455;51.480;7.594;2023-07-31T07:44:31;17.70;99.90
25568;DHT22;13455;51.480;7.594;2023-07-31T07:46:57;17.80;99.90
25568;DHT22;13455;51.480;7.594;2023-07-31T07:49:23;17.80;99.90
25568;DHT22;13455;51.480;7.594;2023-07-31T07:51:49;17.70;99.90
25568;DHT22;13455;51.480;7.594;2023-07-31T07:54:15;17.80;99.90
25568;DHT22;13455;51.480;7.594;2023-07-31T07:56:42;17.60;99.90
25568;DHT22;13455;51.480;7.594;2023-07-31T07:59:08;18.10;99.90
25568;DHT22;13455;51.480;7.594;2023-07-31T08:01:34;17.60;99.90
25568;DHT22;13455;51.480;7.594;2023-07-31T08:04:00;17.80;99.90
25568;DHT22;13455;51.480;7.594;2023-07-31T08:06:26;18.00;99.90
25568;DHT22;13455;51.480;7.594;2023-07-31T08:08:51;17.70;99.90
25568;DHT22;13455;51.480;7.594;2023-07-31T08:11:17;17.60;99.90
25568;DHT22;13455;51.480;7.594;2023-07-31T08:13:43;17.70;99.90
25568;DHT22;13455;51.480;7.594;2023-07-31T08:16:09;18.00;99.90
25568;DHT22;13455;51.480;7.594;2023-07-31T08:18:35;17.70;99.90
25568;DHT22;13455;51.480;7.594;2023-07-31T08:21:03;17.90;99.90
25568;DHT22;13455;51.480;7.594;2023-07-31T08:23:29;17.80;99.90
25568;DHT22;13455;51.480;7.594;2023-07-31T08:25:55;18.10;99.90
25568;DHT22;13455;51.480;7.594;2023-07-31T08:28:20;17.90;99.90
25568;DHT22;13455;51.480;7.594;2023-07-31T08:30:46;17.70;99.90
25568;DHT22;13455;51.480;7.594;2023-07-31T08:33:12;17.70;99.90
25568;DHT22;13455;51.480;7.594;2023-07-31T08:35:37;17.80;99.90
25568;DHT22;13455;51.480;7.594;2023-07-31T08:38:03;17.90;99.90
25568;DHT22;13455;51.480;7.594;2023-07-31T08:40:29;18.00;99.90
25568;DHT22;13455;51.480;7.594;2023-07-31T08:42:56;18.00;99.90
25568;DHT22;13455;51.480;7.594;2023-07-31T08:45:27;18.10;99.90
25568;DHT22;13455;51.480;7.594;2023-07-31T08:47:53;18.20;99.90
25568;DHT22;13455;51.480;7.594;2023-07-31T08:50:20;18.10;99.90
25568;DHT22;13455;51.480;7.594;2023-07-31T08:52:48;18.30;99.90
25568;DHT22;13455;51.480;7.594;2023-07-31T08:55:14;18.00;99.90
25568;DHT22;13455;51.480;7.594;2023-07-31T08:57:40;18.20;99.90
25568;DHT22;13455;51.480;7.594;2023-07-31T09:00:08;18.10;99.90
25568;DHT22;13455;51.480;7.594;2023-07-31T09:02:41;18.20;99.90
25568;DHT22;13455;51.480;7.594;2023-07-31T09:05:11;18.30;99.90
25568;DHT22;13455;51.480;7.594;2023-07-31T09:07:37;18.30;99.90
25568;DHT22;13455;51.480;7.594;2023-07-31T09:10:04;18.90;99.90
25568;DHT22;13455;51.480;7.594;2023-07-31T09:12:31;18.90;99.90
25568;DHT22;13455;51.480;7.594;2023-07-31T09:15:00;18.30;99.90
25568;DHT22;13455;51.480;7.594;2023-07-31T09:17:30;18.40;99.90
25568;DHT22;13455;51.480;7.594;2023-07-31T09:19:57;18.30;99.90
25568;DHT22;13455;51.480;7.594;2023-07-31T09:22:34;18.40;99.90
25568;DHT22;13455;51.480;7.594;2023-07-31T09:25:19;18.40;99.90
25568;DHT22;13455;51.480;7.594;2023-07-31T09:30:17;18.30;99.90
25568;DHT22;13455;51.480;7.594;2023-07-31T09:32:44;18.40;99.90
25568;DHT22;13455;51.480;7.594;2023-07-31T09:35:30;18.50;99.90
25568;DHT22;13455;51.480;7.594;2023-07-31T09:38:03;18.20;99.90
25568;DHT22;13455;51.480;7.594;2023-07-31T09:40:33;18.20;99.90
25568;DHT22;13455;51.480;7.594;2023-07-31T09:43:01;18.20;99.90
25568;DHT22;13455;51.480;7.594;2023-07-31T09:45:28;18.40;99.90
25568;DHT22;13455;51.480;7.594;2023-07-31T09:47:54;18.40;99.90
25568;DHT22;13455;51.480;7.594;2023-07-31T09:50:22;18.40;99.90
25568;DHT22;13455;51.480;7.594;2023-07-31T09:52:48;18.30;99.90
25568;DHT22;13455;51.480;7.594;2023-07-31T09:55:14;18.50;99.90
25568;DHT22;13455;51.480;7.594;2023-07-31T09:57:41;18.20;99.90
25568;DHT22;13455;51.480;7.594;2023-07-31T10:00:10;18.30;99.90
25568;DHT22;13455;51.480;7.594;2023-07-31T10:02:37;18.20;99.90
25568;DHT22;13455;51.480;7.594;2023-07-31T10:05:04;18.40;99.90
25568;DHT22;13455;51.480;7.594;2023-07-31T10:07:31;18.40;99.90
25568;DHT22;13455;51.480;7.594;2023-07-31T10:10:00;18.40;99.90
25568;DHT22;13455;51.480;7.594;2023-07-31T10:12:26;18.30;99.90
25568;DHT22;13455;51.480;7.594;2023-07-31T10:14:55;18.70;99.90
25568;DHT22;13455;51.480;7.594;2023-07-31T10:17:24;18.60;99.90
25568;DHT22;13455;51.480;7.594;2023-07-31T10:19:51;18.70;99.90
25568;DHT22;13455;51.480;7.594;2023-07-31T10:22:18;18.80;99.90
25568;DHT22;13455;51.480;7.594;2023-07-31T10:24:45;18.90;99.90
25568;DHT22;13455;51.480;7.594;2023-07-31T10:27:11;18.90;99.90
25568;DHT22;13455;51.480;7.594;2023-07-31T10:29:38;18.80;99.90
25568;DHT22;13455;51.480;7.594;2023-07-31T10:32:06;19.00;99.90
25568;DHT22;13455;51.480;7.594;2023-07-31T10:34:38;18.80;99.90
25568;DHT22;13455;51.480;7.594;2023-07-31T10:37:25;19.00;99.90
25568;DHT22;13455;51.480;7.594;2023-07-31T10:40:11;19.00;99.90
25568;DHT22;13455;51.480;7.594;2023-07-31T10:45:10;19.00;99.90
25568;DHT22;13455;51.480;7.594;2023-07-31T10:47:46;18.90;99.90
25568;DHT22;13455;51.480;7.594;2023-07-31T10:52:53;19.00;99.90
25568;DHT22;13455;51.480;7.594;2023-07-31T10:57:51;19.30;99.90
25568;DHT22;13455;51.480;7.594;2023-07-31T11:10:46;19.00;99.90
25568;DHT22;13455;51.480;7.594;2023-07-31T11:13:12;19.10;99.90
25568;DHT22;13455;51.480;7.594;2023-07-31T11:15:38;18.80;99.90
25568;DHT22;13455;51.480;7.594;2023-07-31T11:18:04;19.10;99.90
25568;DHT22;13455;51.480;7.594;2023-07-31T11:20:31;18.80;99.90
25568;DHT22;13455;51.480;7.594;2023-07-31T11:23:07;19.00;99.90
25568;DHT22;13455;51.480;7.594;2023-07-31T11:25:35;19.20;99.90
25568;DHT22;13455;51.480;7.594;2023-07-31T11:28:08;18.90;99.90
25568;DHT22;13455;51.480;7.594;2023-07-31T11:30:34;19.10;99.90
25568;DHT22;13455;51.480;7.594;2023-07-31T11:33:04;19.00;99.90
25568;DHT22;13455;51.480;7.594;2023-07-31T11:35:41;19.00;99.90
25568;DHT22;13455;51.480;7.594;2023-07-31T11:38:09;18.80;99.90
25568;DHT22;13455;51.480;7.594;2023-07-31T11:40:44;19.70;99.90
25568;DHT22;13455;51.480;7.594;2023-07-31T11:43:10;18.80;99.90
25568;DHT22;13455;51.480;7.594;2023-07-31T11:45:41;18.80;99.90
25568;DHT22;13455;51.480;7.594;2023-07-31T11:48:07;19.10;99.90
25568;DHT22;13455;51.480;7.594;2023-07-31T11:50:34;18.70;99.90
25568;DHT22;13455;51.480;7.594;2023-07-31T11:53:03;18.60;99.90
25568;DHT22;13455;51.480;7.594;2023-07-31T11:55:31;18.80;99.90
25568;DHT22;13455;51.480;7.594;2023-07-31T11:57:58;18.80;99.90
25568;DHT22;13455;51.480;7.594;2023-07-31T12:00:24;18.20;99.90
25568;DHT22;13455;51.480;7.594;2023-07-31T12:02:51;19.00;99.90
25568;DHT22;13455;51.480;7.594;2023-07-31T12:05:17;18.90;99.90
25568;DHT22;13455;51.480;7.594;2023-07-31T12:07:47;19.00;99.90
25568;DHT22;13455;51.480;7.594;2023-07-31T12:12:58;19.00;99.90
25568;DHT22;13455;51.480;7.594;2023-07-31T12:17:59;18.90;99.90
25568;DHT22;13455;51.480;7.594;2023-07-31T12:20:25;19.00;99.90
25568;DHT22;13455;51.480;7.594;2023-07-31T12:22:51;19.20;99.90
25568;DHT22;13455;51.480;7.594;2023-07-31T12:25:16;19.20;99.90
25568;DHT22;13455;51.480;7.594;2023-07-31T12:27:44;19.20;99.90
25568;DHT22;13455;51.480;7.594;2023-07-31T12:32:55;19.50;99.90
25568;DHT22;13455;51.480;7.594;2023-07-31T12:35:21;19.50;99.90
25568;DHT22;13455;51.480;7.594;2023-07-31T12:37:46;19.50;99.90
25568;DHT22;13455;51.480;7.594;2023-07-31T12:40:12;19.30;99.90
25568;DHT22;13455;51.480;7.594;2023-07-31T12:42:38;19.70;99.90
25568;DHT22;13455;51.480;7.594;2023-07-31T12:45:04;19.80;99.90
25568;DHT22;13455;51.480;7.594;2023-07-31T12:47:30;19.90;99.90
25568;DHT22;13455;51.480;7.594;2023-07-31T12:49:55;19.80;99.90
25568;DHT22;13455;51.480;7.594;2023-07-31T12:52:21;19.80;99.90
25568;DHT22;13455;51.480;7.594;2023-07-31T12:57:13;19.90;99.90
25568;DHT22;13455;51.480;7.594;2023-07-31T12:59:38;20.10;99.90
25568;DHT22;13455;51.480;7.594;2023-07-31T13:02:04;19.80;99.90
25568;DHT22;13455;51.480;7.594;2023-07-31T13:04:30;19.70;99.90
25568;DHT22;13455;51.480;7.594;2023-07-31T13:06:55;19.70;99.90
25568;DHT22;13455;51.480;7.594;2023-07-31T13:09:21;19.90;99.90
25568;DHT22;13455;51.480;7.594;2023-07-31T13:11:47;19.80;99.90
25568;DHT22;13455;51.480;7.594;2023-07-31T13:14:12;19.80;99.90
25568;DHT22;13455;51.480;7.594;2023-07-31T13:16:38;19.80;99.90
25568;DHT22;13455;51.480;7.594;2023-07-31T13:19:03;19.50;99.90
25568;DHT22;13455;51.480;7.594;2023-07-31T13:21:29;19.50;99.90
25568;DHT22;13455;51.480;7.594;2023-07-31T13:23:55;19.70;99.90
25568;DHT22;13455;51.480;7.594;2023-07-31T13:26:23;19.70;99.90
25568;DHT22;13455;51.480;7.594;2023-07-31T13:28:48;19.50;99.90
25568;DHT22;13455;51.480;7.594;2023-07-31T13:31:16;19.60;99.90
25568;DHT22;13455;51.480;7.594;2023-07-31T13:33:41;19.60;99.90
25568;DHT22;13455;51.480;7.594;2023-07-31T13:36:07;19.90;99.90
25568;DHT22;13455;51.480;7.594;2023-07-31T13:38:33;19.50;99.90
25568;DHT22;13455;51.480;7.594;2023-07-31T13:40:58;19.30;99.90
25568;DHT22;13455;51.480;7.594;2023-07-31T13:43:24;20.00;99.90
25568;DHT22;13455;51.480;7.594;2023-07-31T13:45:50;19.80;99.90
25568;DHT22;13455;51.480;7.594;2023-07-31T13:48:15;19.80;99.90
25568;DHT22;13455;51.480;7.594;2023-07-31T13:50:41;19.70;99.90
25568;DHT22;13455;51.480;7.594;2023-07-31T13:53:06;19.50;99.90
25568;DHT22;13455;51.480;7.594;2023-07-31T13:55:32;19.50;99.90
25568;DHT22;13455;51.480;7.594;2023-07-31T13:57:58;19.50;99.90
25568;DHT22;13455;51.480;7.594;2023-07-31T14:00:23;19.40;99.90
25568;DHT22;13455;51.480;7.594;2023-07-31T14:02:49;19.50;99.90
25568;DHT22;13455;51.480;7.594;2023-07-31T14:05:14;19.60;99.90
25568;DHT22;13455;51.480;7.594;2023-07-31T14:07:40;19.40;99.90
25568;DHT22;13455;51.480;7.594;2023-07-31T14:10:05;19.70;99.90
25568;DHT22;13455;51.480;7.594;2023-07-31T14:12:31;19.50;99.90
25568;DHT22;13455;51.480;7.594;2023-07-31T14:14:57;19.80;99.90
25568;DHT22;13455;51.480;7.594;2023-07-31T14:17:22;19.60;99.90
25568;DHT22;13455;51.480;7.594;2023-07-31T14:19:48;19.50;99.90
25568;DHT22;13455;51.480;7.594;2023-07-31T14:22:14;19.90;99.90
25568;DHT22;13455;51.480;7.594;2023-07-31T14:24:39;19.80;99.90
25568;DHT22;13455;51.480;7.594;2023-07-31T14:29:31;19.70;99.90
25568;DHT22;13455;51.480;7.594;2023-07-31T14:31:56;19.80;99.90
25568;DHT22;13455;51.480;7.594;2023-07-31T14:34:22;19.60;99.90
25568;DHT22;13455;51.480;7.594;2023-07-31T14:36:48;19.90;99.90
25568;DHT22;13455;51.480;7.594;2023-07-31T14:39:13;19.90;99.90
25568;DHT22;13455;51.480;7.594;2023-07-31T14:41:39;19.90;99.90
25568;DHT22;13455;51.480;7.594;2023-07-31T14:44:04;20.00;99.90
25568;DHT22;13455;51.480;7.594;2023-07-31T14:46:30;20.20;99.90
25568;DHT22;13455;51.480;7.594;2023-07-31T14:48:55;20.20;99.90
25568;DHT22;13455;51.480;7.594;2023-07-31T14:51:21;20.90;99.90
25568;DHT22;13455;51.480;7.594;2023-07-31T14:53:47;20.80;99.90
25568;DHT22;13455;51.480;7.594;2023-07-31T14:56:12;20.70;99.90
25568;DHT22;13455;51.480;7.594;2023-07-31T14:58:38;20.70;99.90
25568;DHT22;13455;51.480;7.594;2023-07-31T15:01:04;20.90;99.90
25568;DHT22;13455;51.480;7.594;2023-07-31T15:03:29;20.70;99.90
25568;DHT22;13455;51.480;7.594;2023-07-31T15:05:55;20.80;99.90
25568;DHT22;13455;51.480;7.594;2023-07-31T15:08:21;20.80;99.90
25568;DHT22;13455;51.480;7.594;2023-07-31T15:10:46;20.80;99.90
25568;DHT22;13455;51.480;7.594;2023-07-31T15:13:12;20.80;99.90
25568;DHT22;13455;51.480;7.594;2023-07-31T15:15:38;20.90;99.90
25568;DHT22;13455;51.480;7.594;2023-07-31T15:18:03;20.80;99.90
25568;DHT22;13455;51.480;7.594;2023-07-31T15:20:29;21.10;99.90
25568;DHT22;13455;51.480;7.594;2023-07-31T15:22:55;20.60;99.90
25568;DHT22;13455;51.480;7.594;2023-07-31T15:25:21;20.70;99.90
25568;DHT22;13455;51.480;7.594;2023-07-31T15:27:47;20.70;99.90
25568;DHT22;13455;51.480;7.594;2023-07-31T15:30:12;20.70;99.90
25568;DHT22;13455;51.480;7.594;2023-07-31T15:32:38;20.90;99.90
25568;DHT22;13455;51.480;7.594;2023-07-31T15:35:05;20.90;99.90
25568;DHT22;13455;51.480;7.594;2023-07-31T15:37:31;20.90;99.90
25568;DHT22;13455;51.480;7.594;2023-07-31T15:39:56;20.90;99.90
25568;DHT22;13455;51.480;7.594;2023-07-31T15:42:22;20.80;99.90
25568;DHT22;13455;51.480;7.594;2023-07-31T15:44:48;21.10;99.90
25568;DHT22;13455;51.480;7.594;2023-07-31T15:47:13;21.00;99.90
25568;DHT22;13455;51.480;7.594;2023-07-31T15:49:40;21.30;99.90
25568;DHT22;13455;51.480;7.594;2023-07-31T15:52:06;20.90;99.90
25568;DHT22;13455;51.480;7.594;2023-07-31T15:54:32;21.00;99.90
25568;DHT22;13455;51.480;7.594;2023-07-31T15:56:58;20.70;99.90
25568;DHT22;13455;51.480;7.594;2023-07-31T15:59:23;20.70;99.90
25568;DHT22;13455;51.480;7.594;2023-07-31T16:01:49;20.70;99.90
25568;DHT22;13455;51.480;7.594;2023-07-31T16:04:15;20.70;99.90
25568;DHT22;13455;51.480;7.594;2023-07-31T16:06:40;20.80;99.90
25568;DHT22;13455;51.480;7.594;2023-07-31T16:09:06;20.90;99.90
25568;DHT22;13455;51.480;7.594;2023-07-31T16:11:31;20.50;99.90
25568;DHT22;13455;51.480;7.594;2023-07-31T16:13:57;20.80;99.90
25568;DHT22;13455;51.480;7.594;2023-07-31T16:16:24;20.60;99.90
25568;DHT22;13455;51.480;7.594;2023-07-31T16:18:52;20.50;99.90
25568;DHT22;13455;51.480;7.594;2023-07-31T16:21:18;20.60;99.90
25568;DHT22;13455;51.480;7.594;2023-07-31T16:23:43;20.50;99.90
25568;DHT22;13455;51.480;7.594;2023-07-31T16:26:09;20.50;99.90
25568;DHT22;13455;51.480;7.594;2023-07-31T16:28:34;20.50;99.90
25568;DHT22;13455;51.480;7.594;2023-07-31T16:31:00;20.30;99.90
25568;DHT22;13455;51.480;7.594;2023-07-31T16:33:26;20.60;99.90
25568;DHT22;13455;51.480;7.594;2023-07-31T16:35:51;20.30;99.90